Time;durP1;ratioP1;P1;durP2;ratioP2;P2;SDS_P1;SDS_P2;PMS_P1;PMS_P2;Temp;Humidity;BMP_temperature;BMP_pressure;BME280_temperature;BME280_humidity;BME280_pressure;Samples;Min_cycle;Max_cycle;Signal;HPM_P1;HPM_P2
2022/01/11 05:00:56;;;;;;;46.90;30.20;;;3.40;99.90;;;;;;5736015;23;20948;-73
2022/01/11 05:03:23;;;;;;;39.87;29.53;;;3.40;99.90;;;;;;4978360;28;20510;-73
2022/01/11 05:05:50;;;;;;;43.67;29.73;;;3.40;99.90;;;;;;4977156;28;20435;-73
2022/01/11 05:08:17;;;;;;;44.87;29.83;;;3.40;99.90;;;;;;4978486;28;20466;-73
2022/01/11 05:10:44;;;;;;;48.17;29.30;;;3.40;99.90;;;;;;4977680;28;21043;-72
2022/01/11 05:13:12;;;;;;;41.77;28.20;;;3.40;99.90;;;;;;4983809;28;20462;-74
2022/01/11 05:15:39;;;;;;;48.87;31.70;;;3.30;99.90;;;;;;4983821;28;20459;-73
2022/01/11 05:18:07;;;;;;;45.30;30.13;;;3.40;99.90;;;;;;4982895;28;20494;-72
2022/01/11 05:20:34;;;;;;;44.67;28.90;;;3.40;99.90;;;;;;4981124;28;20490;-72
2022/01/11 05:23:01;;;;;;;49.37;31.27;;;3.40;99.90;;;;;;4981061;28;20479;-73
2022/01/11 05:25:28;;;;;;;53.83;29.43;;;3.40;99.90;;;;;;4980582;28;20469;-73
2022/01/11 05:27:55;;;;;;;48.43;32.60;;;3.40;99.90;;;;;;4980012;28;20455;-73
2022/01/11 05:30:22;;;;;;;46.17;31.57;;;3.40;99.90;;;;;;4981889;28;20459;-72
2022/01/11 05:32:50;;;;;;;42.27;29.87;;;3.30;99.90;;;;;;4982310;28;20545;-72
2022/01/11 05:35:20;;;;;;;48.00;29.03;;;3.40;99.90;;;;;;4981982;28;20487;-73
2022/01/11 05:37:47;;;;;;;42.53;29.73;;;3.50;99.90;;;;;;4982664;28;20531;-73
2022/01/11 05:40:16;;;;;;;41.97;28.27;;;3.60;99.90;;;;;;4981205;28;20455;-74
2022/01/11 05:42:43;;;;;;;41.73;29.70;;;3.60;99.90;;;;;;4980820;28;20471;-74
2022/01/11 05:45:13;;;;;;;43.80;27.63;;;3.60;99.90;;;;;;4980895;28;20495;-74
2022/01/11 05:47:40;;;;;;;39.20;27.87;;;3.60;99.90;;;;;;4981347;28;20455;-74
2022/01/11 05:50:10;;;;;;;38.80;27.33;;;3.60;99.90;;;;;;4981104;28;20467;-74
2022/01/11 05:52:39;;;;;;;40.93;27.50;;;3.70;99.90;;;;;;4981353;28;20436;-73
2022/01/11 05:55:09;;;;;;;39.67;28.10;;;3.70;99.90;;;;;;4983225;28;20458;-73
2022/01/11 05:57:36;;;;;;;44.10;27.90;;;3.70;99.90;;;;;;4982312;28;20459;-73
2022/01/11 06:00:07;;;;;;;37.37;25.90;;;3.70;99.90;;;;;;4981522;28;20470;-72
2022/01/11 06:02:34;;;;;;;38.57;27.73;;;3.70;99.90;;;;;;4981476;28;20519;-72
2022/01/11 06:05:01;;;;;;;39.27;26.57;;;3.70;99.90;;;;;;4981184;28;20514;-73
2022/01/11 06:07:28;;;;;;;35.10;25.03;;;3.70;99.90;;;;;;4977935;28;20459;-73
2022/01/11 06:09:56;;;;;;;34.73;25.80;;;3.70;99.90;;;;;;4978414;28;20949;-73
2022/01/11 06:12:23;;;;;;;39.83;26.70;;;3.70;99.90;;;;;;4982378;28;20472;-72
2022/01/11 06:14:49;;;;;;;32.53;23.83;;;3.60;99.90;;;;;;4980483;28;20459;-73
2022/01/11 06:17:16;;;;;;;34.80;26.30;;;3.70;99.90;;;;;;4981612;28;20461;-73
2022/01/11 06:19:43;;;;;;;40.40;26.73;;;4.10;99.90;;;;;;4982082;28;20464;-73
2022/01/11 06:22:10;;;;;;;35.47;25.80;;;4.30;99.90;;;;;;4978316;28;20518;-74
2022/01/11 06:24:37;;;;;;;35.30;25.50;;;4.40;99.90;;;;;;4978360;28;20554;-73
2022/01/11 06:27:05;;;;;;;33.47;22.33;;;4.30;99.90;;;;;;4978502;28;20993;-74
2022/01/11 06:29:32;;;;;;;34.00;23.60;;;4.30;99.90;;;;;;4978622;28;20455;-74
2022/01/11 06:31:59;;;;;;;34.63;23.63;;;4.30;99.90;;;;;;4980229;28;20475;-73
2022/01/11 06:34:26;;;;;;;32.33;23.20;;;4.30;99.90;;;;;;4980217;28;20553;-73
2022/01/11 06:36:53;;;;;;;38.27;26.07;;;4.30;99.90;;;;;;4980093;28;20467;-70
2022/01/11 06:39:20;;;;;;;27.47;22.30;;;4.10;99.90;;;;;;4980079;28;20814;-71
2022/01/11 06:41:47;;;;;;;34.30;24.20;;;4.10;99.90;;;;;;4979860;28;20479;-71
2022/01/11 06:44:15;;;;;;;37.43;23.60;;;4.10;99.90;;;;;;4980012;28;20455;-72
2022/01/11 06:46:42;;;;;;;34.47;24.13;;;4.10;99.90;;;;;;4981746;28;20465;-71
2022/01/11 06:49:08;;;;;;;35.73;25.63;;;4.00;99.90;;;;;;4980917;28;20455;-72
2022/01/11 06:51:36;;;;;;;35.80;24.70;;;3.90;99.90;;;;;;4980567;28;20471;-70
2022/01/11 06:54:02;;;;;;;38.93;26.10;;;3.80;99.90;;;;;;4980269;28;20933;-71
2022/01/11 06:56:29;;;;;;;39.80;23.87;;;3.80;99.90;;;;;;4979020;28;20470;-71
2022/01/11 06:58:56;;;;;;;32.13;23.70;;;3.80;99.90;;;;;;4981422;28;20459;-71
2022/01/11 07:01:24;;;;;;;36.53;25.30;;;3.80;99.90;;;;;;4981520;28;20487;-71
2022/01/11 07:03:51;;;;;;;34.67;24.53;;;3.70;99.90;;;;;;4977976;28;20493;-70
2022/01/11 07:06:17;;;;;;;35.40;23.63;;;3.80;99.90;;;;;;4977750;28;20558;-69
2022/01/11 07:08:44;;;;;;;33.50;24.70;;;3.80;99.90;;;;;;4976777;28;20937;-70
2022/01/11 07:11:12;;;;;;;32.53;24.70;;;3.80;99.90;;;;;;4977371;28;20479;-71
2022/01/11 07:13:39;;;;;;;37.73;26.80;;;3.80;99.90;;;;;;4977380;28;20454;-71
2022/01/11 07:16:06;;;;;;;33.00;25.73;;;3.80;99.90;;;;;;4977168;28;20459;-71
2022/01/11 07:18:34;;;;;;;32.00;23.73;;;3.80;99.90;;;;;;4976700;28;20950;-71
2022/01/11 07:21:01;;;;;;;40.37;26.70;;;3.80;99.90;;;;;;4977665;28;20481;-70
2022/01/11 07:23:28;;;;;;;39.77;26.80;;;3.80;99.90;;;;;;4977053;28;20503;-70
2022/01/11 07:25:55;;;;;;;38.03;25.03;;;3.80;99.90;;;;;;4976721;28;20463;-70
2022/01/11 07:28:23;;;;;;;38.40;26.00;;;3.80;99.90;;;;;;4976360;28;20954;-70
2022/01/11 07:30:50;;;;;;;36.57;28.23;;;3.80;99.90;;;;;;4976784;28;20482;-70
2022/01/11 07:33:17;;;;;;;45.87;26.47;;;3.80;99.90;;;;;;4977387;28;20455;-71
2022/01/11 07:35:45;;;;;;;40.07;26.77;;;3.80;99.90;;;;;;4976565;28;20462;-70
2022/01/11 07:38:12;;;;;;;36.70;26.17;;;3.80;99.90;;;;;;4980072;28;20451;-70
2022/01/11 07:40:39;;;;;;;34.97;26.87;;;3.80;99.90;;;;;;4979570;28;20483;-70
2022/01/11 07:43:06;;;;;;;41.60;28.40;;;3.80;99.90;;;;;;4982039;28;20482;-70
2022/01/11 07:45:45;;;;;;;37.47;27.40;;;3.80;99.90;;;;;;4981219;28;20455;-73
2022/01/11 07:48:12;;;;;;;38.53;28.30;;;3.90;99.90;;;;;;4976088;28;20459;-70
2022/01/11 07:50:38;;;;;;;41.37;27.67;;;3.90;99.90;;;;;;4976378;28;20478;-70
2022/01/11 07:53:06;;;;;;;41.90;28.63;;;4.00;99.90;;;;;;4975866;28;20458;-71
2022/01/11 07:55:33;;;;;;;37.50;27.50;;;4.00;99.90;;;;;;4976551;28;20466;-70
2022/01/11 07:58:00;;;;;;;35.00;25.00;;;4.10;99.90;;;;;;4976455;28;20953;-70
2022/01/11 08:00:27;;;;;;;38.40;26.83;;;4.00;99.90;;;;;;4976819;28;20466;-70
2022/01/11 08:02:54;;;;;;;41.80;27.17;;;4.00;99.90;;;;;;4976806;28;20498;-71
2022/01/11 08:05:21;;;;;;;40.33;28.70;;;4.00;99.90;;;;;;4976470;28;20513;-71
2022/01/11 08:07:48;;;;;;;38.43;26.57;;;4.00;99.90;;;;;;4976761;28;20549;-70
2022/01/11 08:10:18;;;;;;;36.53;27.77;;;4.10;99.90;;;;;;4976275;28;20451;-70
2022/01/11 08:12:45;;;;;;;37.33;26.40;;;4.10;99.90;;;;;;4976488;28;20475;-70
2022/01/11 08:15:12;;;;;;;37.83;27.80;;;4.00;99.90;;;;;;4975828;28;20458;-70
2022/01/11 08:17:39;;;;;;;37.13;26.77;;;4.00;99.90;;;;;;4977242;28;20912;-71
2022/01/11 08:20:08;;;;;;;39.13;27.33;;;4.00;99.90;;;;;;4975394;28;20592;-71
2022/01/11 08:22:34;;;;;;;36.07;25.80;;;4.10;99.90;;;;;;4975600;28;20483;-70
2022/01/11 08:25:01;;;;;;;40.27;25.37;;;4.10;99.90;;;;;;4976404;28;20466;-70
2022/01/11 08:27:29;;;;;;;32.73;25.43;;;4.10;99.90;;;;;;4976421;28;20459;-71
2022/01/11 08:29:56;;;;;;;38.37;26.10;;;4.20;99.90;;;;;;4975601;28;20821;-70
2022/01/11 08:32:23;;;;;;;40.93;24.97;;;4.10;99.90;;;;;;4976033;28;20471;-70
2022/01/11 08:34:50;;;;;;;34.77;25.40;;;4.30;99.90;;;;;;4975742;28;20962;-71
2022/01/11 08:37:17;;;;;;;40.33;26.00;;;4.30;99.90;;;;;;4975821;28;20463;-70
2022/01/11 08:39:44;;;;;;;36.90;25.80;;;4.30;99.90;;;;;;4975906;28;20455;-71
2022/01/11 08:42:12;;;;;;;40.43;25.93;;;4.40;99.90;;;;;;4975443;28;20579;-71
2022/01/11 08:44:41;;;;;;;36.47;25.97;;;4.40;99.90;;;;;;4976040;28;20455;-70
2022/01/11 08:47:08;;;;;;;32.07;24.70;;;4.40;99.90;;;;;;4975421;28;20443;-70
2022/01/11 08:49:35;;;;;;;28.40;22.83;;;4.50;99.90;;;;;;4975695;28;20928;-70
2022/01/11 08:52:02;;;;;;;33.80;23.77;;;4.50;99.90;;;;;;4978379;28;20814;-70
2022/01/11 08:54:29;;;;;;;36.90;25.73;;;4.50;99.90;;;;;;4984028;28;20451;-70
2022/01/11 08:56:57;;;;;;;29.03;23.33;;;4.60;99.90;;;;;;4983730;28;20462;-70
2022/01/11 08:59:26;;;;;;;29.80;22.37;;;4.70;99.90;;;;;;4989161;28;20450;-71
2022/01/11 09:01:59;;;;;;;35.40;21.87;;;4.60;99.90;;;;;;4983131;28;20478;-71
2022/01/11 09:04:27;;;;;;;39.00;24.20;;;4.60;99.90;;;;;;4983745;28;20477;-70
2022/01/11 09:09:39;;;;;;;32.50;23.83;;;4.60;99.90;;;;;;4981567;28;20465;-70
2022/01/11 09:12:12;;;;;;;33.93;24.20;;;4.70;99.90;;;;;;4982651;28;20475;-70
2022/01/11 09:14:40;;;;;;;29.57;23.80;;;4.80;99.90;;;;;;4982383;28;20432;-69
2022/01/11 09:17:11;;;;;;;35.03;23.37;;;4.80;99.90;;;;;;4982170;28;20934;-70
2022/01/11 09:19:39;;;;;;;38.63;24.80;;;4.80;99.90;;;;;;4981959;28;20450;-70
2022/01/11 09:22:07;;;;;;;35.40;25.73;;;4.80;99.90;;;;;;4981543;28;20467;-69
2022/01/11 09:24:34;;;;;;;32.93;24.87;;;4.80;99.90;;;;;;4981944;28;20506;-69
2022/01/11 09:27:04;;;;;;;36.53;24.97;;;5.00;99.90;;;;;;4980661;28;20800;-69
2022/01/11 09:29:31;;;;;;;35.10;24.27;;;4.90;99.90;;;;;;4981041;28;20550;-69
2022/01/11 09:32:00;;;;;;;34.57;23.23;;;5.00;99.90;;;;;;4979405;28;20974;-69
2022/01/11 09:34:29;;;;;;;33.47;24.57;;;5.00;99.90;;;;;;4980290;28;20541;-71
2022/01/11 09:36:56;;;;;;;31.50;25.80;;;5.00;99.90;;;;;;4979568;28;20451;-69
2022/01/11 09:39:23;;;;;;;34.43;24.70;;;5.00;99.90;;;;;;4978874;28;20553;-69
2022/01/11 09:41:51;;;;;;;31.40;24.47;;;5.00;99.90;;;;;;4981172;28;20562;-71
2022/01/11 09:44:18;;;;;;;31.27;23.00;;;5.10;99.90;;;;;;4979302;28;20643;-70
2022/01/11 09:46:46;;;;;;;31.87;23.27;;;5.10;99.90;;;;;;4980840;28;20466;-70
2022/01/11 09:49:14;;;;;;;33.27;22.93;;;5.20;99.90;;;;;;4979687;28;20466;-71
2022/01/11 09:51:42;;;;;;;27.07;22.23;;;5.30;99.90;;;;;;4979692;28;20479;-71
2022/01/11 09:54:09;;;;;;;30.93;23.20;;;5.40;99.90;;;;;;4980888;28;20457;-71
2022/01/11 09:56:36;;;;;;;31.27;23.00;;;5.40;99.90;;;;;;4980234;28;20546;-71
2022/01/11 09:59:04;;;;;;;31.00;24.10;;;5.40;99.90;;;;;;4979460;28;20810;-70
2022/01/11 10:01:31;;;;;;;29.73;22.83;;;5.50;99.90;;;;;;4980077;28;20489;-70
2022/01/11 10:04:00;;;;;;;34.80;21.37;;;5.40;99.90;;;;;;4977566;28;20517;-71
2022/01/11 10:06:27;;;;;;;32.30;23.80;;;5.50;99.90;;;;;;4979003;28;20782;-71
2022/01/11 10:09:09;;;;;;;30.57;21.27;;;5.40;99.90;;;;;;4977890;28;20455;-71
2022/01/11 10:11:38;;;;;;;30.30;21.73;;;5.50;99.90;;;;;;4978364;28;20489;-70
2022/01/11 10:14:26;;;;;;;26.37;20.20;;;5.60;99.90;;;;;;4982730;28;20946;-70
2022/01/11 10:17:10;;;;;;;27.93;21.63;;;5.80;99.90;;;;;;4983509;28;20450;-70
2022/01/11 10:19:39;;;;;;;29.97;21.23;;;5.90;99.90;;;;;;4982918;28;20593;-70
2022/01/11 10:22:09;;;;;;;30.80;21.07;;;5.90;99.90;;;;;;4985456;28;20479;-69
2022/01/11 10:24:42;;;;;;;28.63;21.80;;;5.90;99.90;;;;;;4980058;28;20825;-70
2022/01/11 10:27:15;;;;;;;26.10;19.40;;;6.00;99.90;;;;;;4984698;28;20475;-70
2022/01/11 10:29:45;;;;;;;26.53;21.13;;;6.10;99.90;;;;;;4985330;28;20451;-70
2022/01/11 10:32:25;;;;;;;25.17;20.47;;;6.10;99.90;;;;;;4983333;28;20475;-70
2022/01/11 10:34:55;;;;;;;29.70;20.53;;;6.30;99.90;;;;;;4984250;28;20435;-71
2022/01/11 10:37:36;;;;;;;23.20;18.53;;;6.40;99.90;;;;;;4981950;28;20451;-71
2022/01/11 10:40:11;;;;;;;28.00;20.00;;;6.50;99.90;;;;;;4983070;28;20451;-71
2022/01/11 10:42:44;;;;;;;25.80;19.70;;;6.60;99.90;;;;;;4979691;28;20443;-71
2022/01/11 10:45:13;;;;;;;27.40;20.60;;;6.60;99.90;;;;;;4980428;28;20439;-73
2022/01/11 10:47:42;;;;;;;29.60;19.40;;;6.30;99.90;;;;;;4982099;28;20500;-71
2022/01/11 10:50:12;;;;;;;25.53;20.03;;;6.30;99.90;;;;;;4982011;28;20518;-70
2022/01/11 10:52:40;;;;;;;27.93;19.47;;;6.40;99.90;;;;;;4978171;28;20435;-72
2022/01/11 10:55:12;;;;;;;24.60;19.77;;;6.50;99.90;;;;;;4979362;28;20428;-70
2022/01/11 10:57:41;;;;;;;24.57;19.00;;;6.50;99.90;;;;;;4981334;28;20428;-70
2022/01/11 11:00:17;;;;;;;22.73;18.83;;;6.60;99.90;;;;;;4977597;28;20934;-70
2022/01/11 11:02:46;;;;;;;22.10;18.17;;;6.70;99.90;;;;;;4977676;28;20465;-70
2022/01/11 11:05:19;;;;;;;21.70;17.47;;;6.80;99.90;;;;;;4977058;28;20485;-70
2022/01/11 11:07:58;;;;;;;20.80;18.17;;;6.60;99.90;;;;;;4977082;28;20904;-70
2022/01/11 11:10:43;;;;;;;27.30;17.83;;;6.60;99.90;;;;;;4977670;28;20806;-70
2022/01/11 11:13:17;;;;;;;17.47;15.50;;;6.70;99.90;;;;;;4976818;28;20498;-70
2022/01/11 11:15:44;;;;;;;21.07;16.87;;;6.80;99.90;;;;;;4976725;28;20454;-70
2022/01/11 11:18:32;;;;;;;17.53;15.63;;;6.90;99.90;;;;;;4976360;28;20992;-70
2022/01/11 11:21:13;;;;;;;19.70;16.23;;;7.20;99.90;;;;;;4976717;28;20478;-70
2022/01/11 11:23:40;;;;;;;18.87;14.60;;;7.30;99.90;;;;;;4976340;28;20467;-70
2022/01/11 11:26:09;;;;;;;17.13;14.23;;;7.30;99.90;;;;;;4978911;28;20455;-70
2022/01/11 11:28:38;;;;;;;11.90;10.00;;;7.30;99.90;;;;;;4981398;28;20443;-70
2022/01/11 11:31:05;;;;;;;14.13;10.40;;;7.30;99.90;;;;;;4977536;28;20490;-70
2022/01/11 11:33:36;;;;;;;17.93;12.43;;;7.50;99.90;;;;;;4976481;28;20930;-70
2022/01/11 11:36:08;;;;;;;14.10;11.63;;;7.50;99.90;;;;;;4979167;28;20805;-70
2022/01/11 11:38:40;;;;;;;14.23;12.70;;;7.40;99.90;;;;;;4979763;28;20479;-70
2022/01/11 11:41:08;;;;;;;15.37;11.97;;;7.40;99.90;;;;;;4978368;28;20475;-70
2022/01/11 11:43:35;;;;;;;12.60;11.00;;;7.40;99.90;;;;;;4978341;28;20816;-70
2022/01/11 11:46:02;;;;;;;17.17;13.53;;;7.40;99.90;;;;;;4977979;28;20549;-70
2022/01/11 11:48:32;;;;;;;15.13;12.97;;;7.50;99.90;;;;;;4981261;28;20486;-70
2022/01/11 11:51:12;;;;;;;13.50;12.13;;;7.40;99.90;;;;;;4998941;23;20478;-71
2022/01/11 11:53:40;;;;;;;8.53;7.73;;;7.70;99.90;;;;;;4962076;29;20444;-69
2022/01/11 11:56:21;;;;;;;5.50;5.00;;;8.00;99.90;;;;;;4957565;28;20452;-70
2022/01/11 11:58:50;;;;;;;4.63;4.23;;;8.00;99.90;;;;;;4957105;28;20468;-70
2022/01/11 12:01:41;;;;;;;5.67;5.17;;;8.10;99.90;;;;;;4956165;28;21009;-70
2022/01/11 12:04:09;;;;;;;8.80;6.20;;;8.00;99.90;;;;;;4956645;28;20477;-70
2022/01/11 12:06:36;;;;;;;3.57;3.27;;;7.70;99.90;;;;;;4956218;28;20970;-70
2022/01/11 12:09:06;;;;;;;4.03;3.03;;;7.30;99.90;;;;;;4956108;28;20464;-70
2022/01/11 12:11:39;;;;;;;4.53;3.50;;;7.00;99.90;;;;;;4956979;28;20927;-71
2022/01/11 12:14:07;;;;;;;6.60;4.00;;;7.00;99.90;;;;;;4957362;28;20923;-73
2022/01/11 12:16:43;;;;;;;4.50;4.10;;;7.50;99.90;;;;;;4957115;28;20801;-73
2022/01/11 12:19:13;;;;;;;9.60;5.50;;;7.70;99.90;;;;;;4957277;28;20507;-70
2022/01/11 12:21:44;;;;;;;8.23;5.57;;;7.90;99.90;;;;;;4958695;28;20888;-70
2022/01/11 12:24:13;;;;;;;6.07;4.20;;;7.90;99.90;;;;;;4957282;28;20480;-74
2022/01/11 12:26:42;;;;;;;3.70;3.40;;;8.00;99.90;;;;;;4960270;28;20808;-74
2022/01/11 12:29:26;;;;;;;4.13;3.73;;;8.20;99.90;;;;;;4963898;28;20470;-74
2022/01/11 12:31:57;;;;;;;5.17;3.33;;;8.50;99.90;;;;;;4963277;28;20477;-73
2022/01/11 12:34:49;;;;;;;3.87;2.97;;;8.60;99.90;;;;;;4962732;28;20447;-72
2022/01/11 12:37:23;;;;;;;4.27;3.90;;;8.60;99.90;;;;;;4955415;28;20451;-71
2022/01/11 12:40:16;;;;;;;4.27;3.97;;;8.50;99.90;;;;;;4962936;28;20436;-70
2022/01/11 12:43:02;;;;;;;5.43;3.90;;;8.40;99.90;;;;;;4948354;28;20460;-71
2022/01/11 12:45:54;;;;;;;4.10;3.70;;;8.30;99.90;;;;;;4962214;28;20465;-70
2022/01/11 12:48:53;;;;;;;3.93;3.43;;;8.10;99.90;;;;;;4962427;28;20466;-71
2022/01/11 12:51:29;;;;;;;6.50;3.90;;;8.10;99.90;;;;;;4961927;28;21011;-71
2022/01/11 12:54:10;;;;;;;3.80;3.40;;;8.00;99.90;;;;;;4962221;28;20507;-70
2022/01/11 12:56:37;;;;;;;3.50;3.30;;;8.00;99.90;;;;;;4962464;28;20444;-71
2022/01/11 12:59:07;;;;;;;4.27;3.90;;;7.80;99.90;;;;;;4962541;28;20440;-70
2022/01/11 13:01:33;;;;;;;3.83;3.50;;;7.70;99.90;;;;;;4963178;28;20479;-71
2022/01/11 13:04:02;;;;;;;3.57;3.13;;;7.60;99.90;;;;;;4962760;28;20475;-70
2022/01/11 13:06:30;;;;;;;3.93;3.60;;;7.40;99.90;;;;;;4962428;28;20861;-70
2022/01/11 13:08:58;;;;;;;3.33;3.10;;;7.40;99.90;;;;;;4962455;28;20459;-70
2022/01/11 13:11:25;;;;;;;4.57;4.23;;;7.20;99.90;;;;;;4962610;28;20483;-70
2022/01/11 13:14:16;;;;;;;4.10;3.33;;;7.20;99.90;;;;;;4962240;28;20455;-70
2022/01/11 13:16:46;;;;;;;4.33;4.00;;;6.90;99.90;;;;;;4962253;28;20455;-71
2022/01/11 13:19:14;;;;;;;4.90;4.50;;;6.70;99.90;;;;;;4962312;28;20483;-70
2022/01/11 13:21:41;;;;;;;3.97;3.50;;;6.70;99.90;;;;;;4963111;28;20983;-72
2022/01/11 13:24:23;;;;;;;4.90;4.40;;;6.70;99.90;;;;;;4962536;28;20479;-71
2022/01/11 13:26:52;;;;;;;4.67;4.23;;;6.70;99.90;;;;;;4962343;28;21002;-73
2022/01/11 13:29:20;;;;;;;4.13;3.83;;;6.80;99.90;;;;;;4962465;28;20459;-71
2022/01/11 13:31:52;;;;;;;4.10;3.80;;;7.20;99.90;;;;;;4962368;28;20459;-71
2022/01/11 13:34:22;;;;;;;4.27;3.87;;;7.40;99.90;;;;;;4962188;28;20440;-70
2022/01/11 13:36:53;;;;;;;3.80;3.57;;;7.60;99.90;;;;;;4962152;28;20462;-70
2022/01/11 13:39:24;;;;;;;4.90;4.40;;;7.70;99.90;;;;;;4959301;28;20468;-71
2022/01/11 13:41:52;;;;;;;4.47;4.13;;;7.50;99.90;;;;;;4959149;28;20479;-71
2022/01/11 13:44:20;;;;;;;5.63;4.67;;;7.50;99.90;;;;;;4959089;28;20487;-70
2022/01/11 13:46:51;;;;;;;5.03;4.40;;;7.40;99.90;;;;;;4958982;28;20459;-70
2022/01/11 13:49:19;;;;;;;4.87;4.43;;;7.40;99.90;;;;;;4958993;28;20452;-71
2022/01/11 13:51:48;;;;;;;4.57;4.17;;;7.40;99.90;;;;;;4958969;28;20487;-71
2022/01/11 13:54:16;;;;;;;4.60;4.27;;;7.30;99.90;;;;;;4961462;28;20449;-71
2022/01/11 13:56:45;;;;;;;6.90;4.93;;;7.10;99.90;;;;;;4958819;28;20456;-71
2022/01/11 13:59:14;;;;;;;4.60;4.20;;;7.00;99.90;;;;;;4958526;28;20499;-71
2022/01/11 14:01:42;;;;;;;4.97;4.47;;;6.90;99.90;;;;;;4959324;28;21010;-71
2022/01/11 14:04:11;;;;;;;4.20;3.90;;;6.80;99.90;;;;;;4958861;28;20487;-71
2022/01/11 14:06:43;;;;;;;5.83;5.20;;;6.70;99.90;;;;;;4958434;28;20456;-71
2022/01/11 14:09:17;;;;;;;6.70;4.90;;;6.50;99.90;;;;;;4958796;28;20559;-71
2022/01/11 14:12:02;;;;;;;5.43;4.60;;;6.60;99.90;;;;;;4958801;28;20535;-71
2022/01/11 14:14:29;;;;;;;4.47;4.17;;;6.50;99.90;;;;;;4958693;28;20801;-71
2022/01/11 14:16:56;;;;;;;5.03;4.50;;;6.40;99.90;;;;;;4958438;28;20830;-70
2022/01/11 14:19:25;;;;;;;3.77;3.47;;;6.40;99.90;;;;;;4958892;28;20460;-70
2022/01/11 14:21:53;;;;;;;3.90;3.60;;;6.40;99.90;;;;;;4958695;28;20539;-70
2022/01/11 14:24:20;;;;;;;8.23;4.10;;;6.30;99.90;;;;;;4958547;28;20571;-70
2022/01/11 14:26:49;;;;;;;4.93;4.53;;;6.20;99.90;;;;;;4958058;28;20460;-70
2022/01/11 14:29:20;;;;;;;4.60;4.23;;;6.30;99.90;;;;;;4958907;28;20440;-71
2022/01/11 14:32:03;;;;;;;4.70;4.30;;;6.20;99.90;;;;;;4958568;28;20476;-70
2022/01/11 14:34:31;;;;;;;4.40;4.00;;;6.30;99.90;;;;;;4958585;28;20443;-70
2022/01/11 14:37:17;;;;;;;4.63;4.23;;;6.20;99.90;;;;;;4958588;28;20463;-71
2022/01/11 14:39:44;;;;;;;4.73;4.30;;;6.20;99.90;;;;;;4958164;28;20455;-71
2022/01/11 14:42:11;;;;;;;5.30;4.47;;;6.00;99.90;;;;;;4959636;28;20816;-72
2022/01/11 14:44:38;;;;;;;4.43;4.03;;;5.90;99.90;;;;;;4960786;28;20479;-70
2022/01/11 14:47:05;;;;;;;4.83;4.37;;;5.90;99.90;;;;;;4958775;28;20469;-70
2022/01/11 14:49:35;;;;;;;4.17;3.87;;;5.80;99.90;;;;;;4958172;28;20507;-71
2022/01/11 14:52:04;;;;;;;4.03;3.73;;;5.70;99.90;;;;;;4959624;28;20498;-70
2022/01/11 14:54:34;;;;;;;5.93;3.93;;;5.70;99.90;;;;;;4961396;28;20475;-71
2022/01/11 14:57:04;;;;;;;4.43;4.03;;;5.70;99.90;;;;;;4960571;28;20496;-72
2022/01/11 14:59:35;;;;;;;4.47;4.07;;;5.60;99.90;;;;;;4960868;28;20868;-71
2022/01/11 15:02:05;;;;;;;4.30;3.90;;;5.60;99.90;;;;;;4960982;28;20487;-70
2022/01/11 15:04:39;;;;;;;4.10;3.80;;;5.60;99.90;;;;;;4958762;28;20483;-71
2022/01/11 15:07:09;;;;;;;5.20;4.70;;;5.50;99.90;;;;;;4958159;28;20440;-71
2022/01/11 15:09:37;;;;;;;4.67;4.27;;;5.50;99.90;;;;;;4957764;28;20448;-70
2022/01/11 15:12:12;;;;;;;6.63;5.67;;;5.50;99.90;;;;;;4958182;28;20476;-70
2022/01/11 15:14:40;;;;;;;6.60;6.00;;;5.50;99.90;;;;;;4957883;28;20435;-70
2022/01/11 15:17:09;;;;;;;4.93;4.43;;;5.40;99.90;;;;;;4957761;28;20467;-70
2022/01/11 15:19:38;;;;;;;4.73;4.10;;;5.40;99.90;;;;;;4957519;28;20970;-71
2022/01/11 15:22:06;;;;;;;5.47;4.73;;;5.40;99.90;;;;;;4958311;28;20480;-71
2022/01/11 15:24:33;;;;;;;5.43;4.93;;;5.50;99.90;;;;;;4958885;28;20484;-71
2022/01/11 15:27:00;;;;;;;5.10;4.60;;;5.50;99.90;;;;;;4957590;28;20806;-71
2022/01/11 15:29:30;;;;;;;5.30;4.90;;;5.50;99.90;;;;;;4957826;28;20460;-71
2022/01/11 15:31:58;;;;;;;5.13;4.63;;;5.60;99.90;;;;;;4957540;28;20574;-71
2022/01/11 15:34:25;;;;;;;5.67;5.17;;;5.60;99.90;;;;;;4957394;28;20468;-71
2022/01/11 15:36:54;;;;;;;6.77;5.50;;;5.60;99.90;;;;;;4957308;28;20469;-70
2022/01/11 15:39:21;;;;;;;8.93;5.77;;;5.70;99.90;;;;;;4957139;28;20533;-70
2022/01/11 15:41:50;;;;;;;5.97;5.47;;;5.70;99.90;;;;;;4956905;28;20823;-71
2022/01/11 15:44:17;;;;;;;5.83;5.30;;;5.70;99.90;;;;;;4957143;28;20452;-71
2022/01/11 15:46:45;;;;;;;5.33;4.83;;;5.70;99.90;;;;;;4957233;28;20499;-71
2022/01/11 15:49:13;;;;;;;8.13;5.83;;;5.60;99.90;;;;;;4957084;28;20456;-71
2022/01/11 15:51:40;;;;;;;6.17;5.53;;;5.60;99.90;;;;;;4956592;28;20519;-71
2022/01/11 15:54:11;;;;;;;4.77;4.40;;;5.60;99.90;;;;;;4956801;28;20900;-71
2022/01/11 15:56:40;;;;;;;5.03;4.53;;;5.50;99.90;;;;;;4956181;28;20924;-72
2022/01/11 15:59:07;;;;;;;5.00;4.50;;;5.50;99.90;;;;;;4956227;28;20495;-72
2022/01/11 16:01:34;;;;;;;5.53;4.60;;;5.50;99.90;;;;;;4955923;28;20837;-72
2022/01/11 16:04:01;;;;;;;4.63;4.23;;;5.50;99.90;;;;;;4956765;28;20476;-72
2022/01/11 16:06:28;;;;;;;5.00;4.60;;;5.40;99.90;;;;;;4957001;28;20486;-72
2022/01/11 16:08:55;;;;;;;4.80;4.40;;;5.30;99.90;;;;;;4956895;28;20456;-71
2022/01/11 16:11:23;;;;;;;6.80;4.97;;;5.40;99.90;;;;;;4956439;28;20472;-71
2022/01/11 16:13:50;;;;;;;5.10;4.50;;;5.30;99.90;;;;;;4956282;28;20463;-72
2022/01/11 16:16:17;;;;;;;5.10;4.70;;;5.30;99.90;;;;;;4956379;28;20451;-71
2022/01/11 16:18:43;;;;;;;5.40;4.90;;;5.30;99.90;;;;;;4956514;28;20462;-71
2022/01/11 16:21:10;;;;;;;5.30;4.90;;;5.30;99.90;;;;;;4956080;28;20848;-71
2022/01/11 16:23:37;;;;;;;6.20;5.13;;;5.20;99.90;;;;;;4957360;28;20467;-72
2022/01/11 16:26:04;;;;;;;6.40;5.80;;;5.30;99.90;;;;;;4956811;28;20480;-71
2022/01/11 16:28:32;;;;;;;6.63;5.17;;;5.30;99.90;;;;;;4956566;28;20821;-71
2022/01/11 16:30:59;;;;;;;6.00;5.50;;;5.30;99.90;;;;;;4956346;28;20487;-71
2022/01/11 16:33:28;;;;;;;5.63;5.13;;;5.20;99.90;;;;;;4956556;28;20506;-71
2022/01/11 16:35:55;;;;;;;5.77;5.27;;;5.30;99.90;;;;;;4956074;28;20455;-72
2022/01/11 16:38:23;;;;;;;5.03;4.63;;;5.30;99.90;;;;;;4959761;28;20456;-71
2022/01/11 16:43:37;;;;;;;5.80;5.27;;;5.20;99.90;;;;;;4957778;29;20852;-71
2022/01/11 16:46:08;;;;;;;6.50;5.43;;;5.20;99.90;;;;;;4957261;28;20547;-71
2022/01/11 16:48:36;;;;;;;6.97;6.27;;;5.20;99.90;;;;;;4957070;28;20847;-71
2022/01/11 16:51:03;;;;;;;5.60;5.07;;;5.20;99.90;;;;;;4956769;28;20507;-71
2022/01/11 16:53:32;;;;;;;6.00;5.30;;;5.20;99.90;;;;;;4956958;28;20938;-70
2022/01/11 16:55:59;;;;;;;5.73;5.13;;;5.20;99.90;;;;;;4960830;28;20463;-71
2022/01/11 16:58:30;;;;;;;9.30;6.13;;;5.20;99.90;;;;;;4963381;28;20467;-68
2022/01/11 17:00:58;;;;;;;7.37;6.73;;;5.20;99.90;;;;;;4957664;28;20518;-70
2022/01/11 17:03:25;;;;;;;5.73;5.20;;;5.20;99.90;;;;;;4958202;28;20452;-70
2022/01/11 17:05:52;;;;;;;5.63;5.13;;;5.10;99.90;;;;;;4957127;28;20490;-71
2022/01/11 17:08:19;;;;;;;5.80;5.20;;;5.20;99.90;;;;;;4956141;28;20455;-71
2022/01/11 17:10:46;;;;;;;7.33;5.83;;;5.10;99.90;;;;;;4956180;28;20480;-71
2022/01/11 17:13:12;;;;;;;6.87;5.57;;;5.20;99.90;;;;;;4958444;28;20459;-69
2022/01/11 17:15:39;;;;;;;6.77;6.17;;;5.10;99.90;;;;;;4960124;28;20463;-68
2022/01/11 17:18:07;;;;;;;9.40;6.50;;;5.10;99.90;;;;;;4959836;28;20951;-69
2022/01/11 17:20:36;;;;;;;8.10;6.00;;;5.20;99.90;;;;;;4960375;28;20456;-68
2022/01/11 17:23:04;;;;;;;6.53;5.97;;;5.20;99.90;;;;;;4962007;28;20462;-72
2022/01/11 17:25:31;;;;;;;7.40;5.80;;;5.10;99.90;;;;;;4961145;28;21019;-73
2022/01/11 17:27:58;;;;;;;7.10;6.13;;;5.20;99.90;;;;;;4960241;28;20452;-73
2022/01/11 17:30:24;;;;;;;7.50;6.80;;;5.20;99.90;;;;;;4960618;28;20464;-71
2022/01/11 17:32:53;;;;;;;7.23;5.57;;;5.10;99.90;;;;;;4961246;28;20460;-71
2022/01/11 17:35:21;;;;;;;6.60;5.60;;;5.10;99.90;;;;;;4959737;28;20459;-71
2022/01/11 17:37:48;;;;;;;4.90;4.50;;;5.00;99.90;;;;;;4959265;28;20468;-71
2022/01/11 17:40:18;;;;;;;7.87;5.00;;;5.00;99.90;;;;;;4960997;28;20460;-71
2022/01/11 17:42:47;;;;;;;5.70;5.20;;;4.90;99.90;;;;;;4959168;28;20459;-71
2022/01/11 17:45:14;;;;;;;4.83;4.43;;;4.80;99.90;;;;;;4959158;28;20456;-74
2022/01/11 17:47:41;;;;;;;5.07;4.67;;;4.90;99.90;;;;;;4958812;28;20460;-73
2022/01/11 17:50:10;;;;;;;8.03;5.00;;;4.90;99.90;;;;;;4959222;28;20463;-74
2022/01/11 17:52:38;;;;;;;5.03;4.67;;;4.80;99.90;;;;;;4958435;28;20492;-74
2022/01/11 17:55:08;;;;;;;6.37;5.77;;;4.80;99.90;;;;;;4959632;28;20463;-74
2022/01/11 17:57:35;;;;;;;5.90;5.30;;;4.80;99.90;;;;;;4959149;28;20440;-72
2022/01/11 18:00:01;;;;;;;7.50;6.77;;;4.90;99.90;;;;;;4958410;28;20456;-65
2022/01/11 18:02:28;;;;;;;6.07;5.53;;;4.90;99.90;;;;;;4958672;28;20649;-70